Waterville, KS (66548)

2:09 AM CST on November 26, 2014 (GMT -0600)
N0NB | Change Station
CLOSE
Current Station
Personal Weather Station
Location: Bremen, KS
Elevation: 1312 ft
Nearby Weather Stations

Elev 1312 ft 39.91 °N, 96.77 °W | Updated 42 seconds ago

Overcast
Overcast
42.6 °F
Feels Like 38 °F
N
7.3
Wind Variable Wind from NW
Gusts 11.9 mph

Today
High -- | Low -- °F
--% Chance of Precip.
Yesterday
High -- | Low -- °F
Precip. -- in
7:23 AM 5:04 PM
Waxing Crescent, 17% visible
Pressure 29.95 in
Visibility 10.0 miles
Clouds Scattered Clouds 4700 ft
Overcast 6000 ft
Windchill 38 °F
Dew Point 37 °F
Humidity 79%
Rainfall 0.00 in
Snow Depth Not available.
UV 0 out of 12
Pollen .10 out of 12
Air Quality Not available.
Flu Activity Not available.
METAR KMHK 260752Z AUTO 26012G19KT 10SM -RA SCT047 OVC060 08/M01 A2994 RMK AO2 RAB48 SLP142 P0000 T00781011 TSNO

More Conditions Fewer Conditions

Pressure 29.95 in
Visibility 10.0 miles
Clouds Scattered Clouds 4700 ft
Overcast 6000 ft
Windchill 38 °F
Dew Point 37 °F
Humidity 79%
Rainfall 0.00 in
Snow Depth Not available.
UV 0 out of 12
Pollen .10 out of 12
Air Quality Not available.
Flu Activity Not available.
METAR KMHK 260752Z AUTO 26012G19KT 10SM -RA SCT047 OVC060 08/M01 A2994 RMK AO2 RAB48 SLP142 P0000 T00781011 TSNO

More Conditions Fewer Conditions

10-Day Weather Forecast

Almanac

Astronomy

Nov. 26, 2014 Rise Set
Actual Time
Civil Twilight
Nautical Twilight
Astronomical Twilight
Moon
Length of Visible Light
Length of Day
Tomorrow will be .
, % of the Moon is Illuminated

Today's Extremes

State Highs State Lows

Community

WunderPhotos

Upload Photos

1,773,694 photos uploaded!

WunderBlogs® & News

Nearby

Air Quality

  Air Quality AQ Index Pollutant
Not available.

Snow Depth

Station Depth Elevation

Earthquake Activity

City Distance Mag. Time & Date
Minimum magnitude displayed is 2.5.

Coastal Water Temperatures

Place Temperature

Nearby Weather Stations